Time;durP1;ratioP1;P1;durP2;ratioP2;P2;SDS_P1;SDS_P2;PMS_P1;PMS_P2;Temp;Humidity;BMP_temperature;BMP_pressure;BME280_temperature;BME280_humidity;BME280_pressure;Samples;Min_cycle;Max_cycle;Signal;HPM_P1;HPM_P2
2023/01/21 00:00:44;;;;;;;0.30;0.30;;;;;;;;;;1716331;28;20240;-72
2023/01/21 00:01:36;;;;;;;0.10;0.10;;;;;;;;;;1718207;28;20275;-72
2023/01/21 00:02:27;;;;;;;0.10;0.10;;;;;;;;;;1718923;28;20217;-72
2023/01/21 00:03:21;;;;;;;0.20;0.20;;;;;;;;;;1718253;28;20252;-72
2023/01/21 00:04:12;;;;;;;0.10;0.10;;;;;;;;;;1715696;28;20291;-72
2023/01/21 00:05:04;;;;;;;0.20;0.20;;;;;;;;;;1718859;28;20209;-72
2023/01/21 00:05:57;;;;;;;0.10;0.10;;;;;;;;;;1717243;28;20681;-72
2023/01/21 00:06:49;;;;;;;0.20;0.20;;;;;;;;;;1718359;28;20296;-72
2023/01/21 00:07:40;;;;;;;0.20;0.20;;;;;;;;;;1719543;28;20212;-72
2023/01/21 00:08:32;;;;;;;0.20;0.20;;;;;;;;;;1718404;28;20216;-72
2023/01/21 00:09:23;;;;;;;0.10;0.10;;;;;;;;;;1719221;28;20632;-72
2023/01/21 00:10:15;;;;;;;0.20;0.20;;;;;;;;;;1717529;28;20213;-71
2023/01/21 00:11:07;;;;;;;0.10;0.10;;;;;;;;;;1718429;28;20716;-71
2023/01/21 00:12:01;;;;;;;0.10;0.10;;;;;;;;;;1718570;28;20212;-72
2023/01/21 00:12:52;;;;;;;0.17;0.17;;;;;;;;;;1718858;28;20371;-71
2023/01/21 00:13:45;;;;;;;0.20;0.20;;;;;;;;;;1718917;28;20205;-71
2023/01/21 00:14:36;;;;;;;0.20;0.20;;;;;;;;;;1718900;28;20217;-72
2023/01/21 00:15:28;;;;;;;0.20;0.20;;;;;;;;;;1716405;28;20209;-72
2023/01/21 00:16:19;;;;;;;0.30;0.30;;;;;;;;;;1719255;28;20635;-72
2023/01/21 00:17:11;;;;;;;0.10;0.10;;;;;;;;;;1717845;28;20674;-72
2023/01/21 00:18:02;;;;;;;0.15;0.15;;;;;;;;;;1719274;28;20205;-72
2023/01/21 00:18:56;;;;;;;0.10;0.10;;;;;;;;;;1718138;28;20204;-72
2023/01/21 00:19:47;;;;;;;0.30;0.30;;;;;;;;;;1719501;28;20243;-72
2023/01/21 00:20:39;;;;;;;0.15;0.15;;;;;;;;;;1716646;28;20299;-72
2023/01/21 00:21:30;;;;;;;0.20;0.20;;;;;;;;;;1718626;28;20291;-72
2023/01/21 00:22:22;;;;;;;0.10;0.10;;;;;;;;;;1718776;28;20275;-72
2023/01/21 00:23:13;;;;;;;0.10;0.10;;;;;;;;;;1718413;28;20212;-72
2023/01/21 00:24:05;;;;;;;0.10;0.10;;;;;;;;;;1718989;28;20263;-72
2023/01/21 00:24:56;;;;;;;0.20;0.20;;;;;;;;;;1718408;28;20197;-72
2023/01/21 00:25:48;;;;;;;0.20;0.20;;;;;;;;;;1717937;28;20341;-73
2023/01/21 00:26:39;;;;;;;0.20;0.20;;;;;;;;;;1713478;28;20206;-73
2023/01/21 00:27:31;;;;;;;0.20;0.20;;;;;;;;;;1718631;28;20274;-73
2023/01/21 00:28:22;;;;;;;0.10;0.10;;;;;;;;;;1718075;28;20213;-72
2023/01/21 00:29:14;;;;;;;0.20;0.20;;;;;;;;;;1718908;28;20205;-73
2023/01/21 00:30:05;;;;;;;0.10;0.10;;;;;;;;;;1719627;28;20205;-73
2023/01/21 00:30:58;;;;;;;0.10;0.10;;;;;;;;;;1717807;28;20670;-72
2023/01/21 00:31:49;;;;;;;0.32;0.32;;;;;;;;;;1718661;28;20206;-72
2023/01/21 00:32:41;;;;;;;0.20;0.20;;;;;;;;;;1719948;28;20239;-72
2023/01/21 00:33:32;;;;;;;0.20;0.20;;;;;;;;;;1705838;28;20475;-72
2023/01/21 00:34:25;;;;;;;0.30;0.30;;;;;;;;;;1706754;29;20214;-72
2023/01/21 00:35:16;;;;;;;0.25;0.25;;;;;;;;;;1704516;28;20226;-73
2023/01/21 00:36:10;;;;;;;0.10;0.10;;;;;;;;;;1706015;28;20230;-73
2023/01/21 00:37:01;;;;;;;0.20;0.20;;;;;;;;;;1705510;28;20206;-73
2023/01/21 00:37:53;;;;;;;0.20;0.20;;;;;;;;;;1705865;28;20265;-72
2023/01/21 00:38:44;;;;;;;0.05;0.05;;;;;;;;;;1705775;28;20210;-73
2023/01/21 00:39:41;;;;;;;0.10;0.10;;;;;;;;;;1706144;29;20221;-73
2023/01/21 00:40:32;;;;;;;0.10;0.10;;;;;;;;;;1703893;28;20317;-73
2023/01/21 00:41:25;;;;;;;0.10;0.10;;;;;;;;;;1706238;28;20289;-73
2023/01/21 00:42:16;;;;;;;0.20;0.20;;;;;;;;;;1705055;28;20699;-73
2023/01/21 00:43:07;;;;;;;0.20;0.20;;;;;;;;;;1706313;29;20652;-72
2023/01/21 00:43:58;;;;;;;0.30;0.30;;;;;;;;;;1705178;28;20214;-73
2023/01/21 00:44:51;;;;;;;0.10;0.10;;;;;;;;;;1706204;28;20210;-73
2023/01/21 00:45:42;;;;;;;0.10;0.10;;;;;;;;;;1704663;28;20268;-72
2023/01/21 00:46:34;;;;;;;0.10;0.10;;;;;;;;;;1705582;29;20210;-72
2023/01/21 00:47:25;;;;;;;0.20;0.20;;;;;;;;;;1705277;29;20661;-72
2023/01/21 00:48:16;;;;;;;0.10;0.10;;;;;;;;;;1705262;29;20549;-72
2023/01/21 00:49:07;;;;;;;0.10;0.10;;;;;;;;;;1706256;28;20218;-72
2023/01/21 00:50:03;;;;;;;0.13;0.13;;;;;;;;;;1705415;28;20246;-72
2023/01/21 00:50:54;;;;;;;0.10;0.10;;;;;;;;;;1701372;28;20241;-72
2023/01/21 00:51:46;;;;;;;0.10;0.10;;;;;;;;;;1705965;28;20198;-72
2023/01/21 00:52:37;;;;;;;0.30;0.30;;;;;;;;;;1706132;29;20756;-72
2023/01/21 00:53:30;;;;;;;0.20;0.20;;;;;;;;;;1705226;29;20633;-72
2023/01/21 00:54:21;;;;;;;0.10;0.10;;;;;;;;;;1701779;28;20605;-73
2023/01/21 00:55:13;;;;;;;0.20;0.20;;;;;;;;;;1701305;28;20782;-74
2023/01/21 00:56:05;;;;;;;0.20;0.20;;;;;;;;;;1705440;28;20295;-73
2023/01/21 00:56:57;;;;;;;0.35;0.35;;;;;;;;;;1705140;28;20233;-73
2023/01/21 00:57:48;;;;;;;0.10;0.10;;;;;;;;;;1706360;28;20284;-72
2023/01/21 00:58:42;;;;;;;0.20;0.20;;;;;;;;;;1705357;29;20222;-72
2023/01/21 00:59:34;;;;;;;0.22;0.22;;;;;;;;;;1706258;29;20210;-72
2023/01/21 01:00:25;;;;;;;0.38;0.38;;;;;;;;;;1703379;28;20285;-73
2023/01/21 01:01:18;;;;;;;0.20;0.20;;;;;;;;;;1706222;28;20688;-73
2023/01/21 01:02:09;;;;;;;0.20;0.20;;;;;;;;;;1703750;28;20672;-73
2023/01/21 01:03:01;;;;;;;0.20;0.20;;;;;;;;;;1704166;28;20211;-72
2023/01/21 01:03:52;;;;;;;0.20;0.20;;;;;;;;;;1704650;29;20525;-73
2023/01/21 01:04:44;;;;;;;0.10;0.10;;;;;;;;;;1706093;28;20210;-72
2023/01/21 01:05:36;;;;;;;0.20;0.20;;;;;;;;;;1703644;28;20295;-72
2023/01/21 01:06:28;;;;;;;0.20;0.20;;;;;;;;;;1705981;28;20225;-72
2023/01/21 01:07:19;;;;;;;0.20;0.20;;;;;;;;;;1703106;29;20219;-72
2023/01/21 01:08:10;;;;;;;0.20;0.20;;;;;;;;;;1705877;29;20218;-72
2023/01/21 01:09:02;;;;;;;0.08;0.08;;;;;;;;;;1705045;28;20639;-72
2023/01/21 01:09:53;;;;;;;0.10;0.10;;;;;;;;;;1705662;28;20238;-72
2023/01/21 01:10:45;;;;;;;0.20;0.20;;;;;;;;;;1700324;28;20608;-72
2023/01/21 01:11:37;;;;;;;0.15;0.15;;;;;;;;;;1705252;28;20214;-72
2023/01/21 01:12:28;;;;;;;0.20;0.20;;;;;;;;;;1705208;28;20210;-72
2023/01/21 01:13:21;;;;;;;0.20;0.20;;;;;;;;;;1704869;29;20206;-72
2023/01/21 01:14:12;;;;;;;0.10;0.10;;;;;;;;;;1702740;29;20225;-72
2023/01/21 01:15:04;;;;;;;0.20;0.20;;;;;;;;;;1705374;28;20499;-72
2023/01/21 01:15:56;;;;;;;0.10;0.10;;;;;;;;;;1704189;28;20312;-72
2023/01/21 01:16:48;;;;;;;0.20;0.20;;;;;;;;;;1705696;28;20198;-72
2023/01/21 01:17:39;;;;;;;0.10;0.10;;;;;;;;;;1705878;28;20711;-72
2023/01/21 01:18:32;;;;;;;0.20;0.20;;;;;;;;;;1705340;29;20609;-72
2023/01/21 01:19:24;;;;;;;0.20;0.20;;;;;;;;;;1705945;28;20214;-72
2023/01/21 01:20:16;;;;;;;0.00;0.00;;;;;;;;;;1704043;28;20206;-73
2023/01/21 01:21:10;;;;;;;0.32;0.32;;;;;;;;;;1705381;28;21000;-72
2023/01/21 01:22:02;;;;;;;0.10;0.10;;;;;;;;;;1705147;28;20245;-72
2023/01/21 01:22:53;;;;;;;0.13;0.13;;;;;;;;;;1705945;28;20218;-72
2023/01/21 01:23:45;;;;;;;0.20;0.20;;;;;;;;;;1704537;28;20210;-72
2023/01/21 01:24:36;;;;;;;0.10;0.10;;;;;;;;;;1706019;29;20226;-72
2023/01/21 01:25:28;;;;;;;0.10;0.10;;;;;;;;;;1703623;28;20218;-72
2023/01/21 01:26:19;;;;;;;0.00;0.00;;;;;;;;;;1702974;29;20601;-71
2023/01/21 01:27:11;;;;;;;0.30;0.30;;;;;;;;;;1704914;28;20198;-72
2023/01/21 01:28:02;;;;;;;0.20;0.20;;;;;;;;;;1705826;29;20952;-72
2023/01/21 01:28:54;;;;;;;0.10;0.10;;;;;;;;;;1705165;28;20202;-72
2023/01/21 01:29:45;;;;;;;0.10;0.10;;;;;;;;;;1706321;28;20198;-73
2023/01/21 01:30:37;;;;;;;0.20;0.20;;;;;;;;;;1703330;28;20272;-71
2023/01/21 01:31:28;;;;;;;0.20;0.20;;;;;;;;;;1705952;28;20214;-72
2023/01/21 01:32:20;;;;;;;0.10;0.10;;;;;;;;;;1705400;29;20203;-72
2023/01/21 01:33:11;;;;;;;0.10;0.10;;;;;;;;;;1713182;28;21062;-72
2023/01/21 01:34:03;;;;;;;0.10;0.10;;;;;;;;;;1718992;28;20521;-72
2023/01/21 01:34:54;;;;;;;0.13;0.13;;;;;;;;;;1718801;28;20278;-72
2023/01/21 01:35:46;;;;;;;0.20;0.20;;;;;;;;;;1717481;28;20299;-71
2023/01/21 01:36:39;;;;;;;0.10;0.10;;;;;;;;;;1718605;28;20535;-71
2023/01/21 01:37:31;;;;;;;0.10;0.10;;;;;;;;;;1719186;28;20776;-71
2023/01/21 01:38:22;;;;;;;0.10;0.10;;;;;;;;;;1718338;28;20216;-71
2023/01/21 01:39:14;;;;;;;0.10;0.10;;;;;;;;;;1716432;28;20206;-71
2023/01/21 01:40:06;;;;;;;0.13;0.13;;;;;;;;;;1714108;28;20497;-72
2023/01/21 01:40:58;;;;;;;0.10;0.10;;;;;;;;;;1717309;28;20562;-72
2023/01/21 01:41:49;;;;;;;0.30;0.30;;;;;;;;;;1718883;28;20263;-72
2023/01/21 01:42:41;;;;;;;0.10;0.10;;;;;;;;;;1718990;28;20275;-72
2023/01/21 01:43:47;;;;;;;0.10;0.10;;;;;;;;;;1718637;28;20210;-72
2023/01/21 01:45:06;;;;;;;0.10;0.10;;;;;;;;;;1718994;28;20459;-72
2023/01/21 01:45:57;;;;;;;0.30;0.30;;;;;;;;;;1687374;29;20239;-72
2023/01/21 01:46:49;;;;;;;0.20;0.20;;;;;;;;;;1700593;28;20214;-72
2023/01/21 01:47:43;;;;;;;0.20;0.20;;;;;;;;;;1719297;28;20217;-72
2023/01/21 01:48:35;;;;;;;0.10;0.10;;;;;;;;;;1718315;28;20205;-72
2023/01/21 01:49:26;;;;;;;0.10;0.10;;;;;;;;;;1719351;28;20250;-72
2023/01/21 01:50:19;;;;;;;0.10;0.10;;;;;;;;;;1716877;28;20244;-73
2023/01/21 01:51:12;;;;;;;0.10;0.10;;;;;;;;;;1718815;28;20619;-72
2023/01/21 01:52:06;;;;;;;0.10;0.10;;;;;;;;;;1718460;28;20197;-72
2023/01/21 01:52:59;;;;;;;0.10;0.10;;;;;;;;;;1719017;28;20208;-72
2023/01/21 01:53:51;;;;;;;0.10;0.10;;;;;;;;;;1718816;28;20208;-72
2023/01/21 01:54:45;;;;;;;0.20;0.20;;;;;;;;;;1719474;28;20578;-72
2023/01/21 01:55:36;;;;;;;0.20;0.20;;;;;;;;;;1716846;28;20237;-72
2023/01/21 01:56:29;;;;;;;0.20;0.20;;;;;;;;;;1719314;28;20204;-72
2023/01/21 01:57:22;;;;;;;0.13;0.13;;;;;;;;;;1717984;28;20220;-72
2023/01/21 01:58:15;;;;;;;0.55;0.55;;;;;;;;;;1718526;28;20208;-72
2023/01/21 01:59:06;;;;;;;0.10;0.10;;;;;;;;;;1718223;28;20290;-72
2023/01/21 01:59:58;;;;;;;0.20;0.20;;;;;;;;;;1718264;28;20211;-72
2023/01/21 02:00:50;;;;;;;0.20;0.20;;;;;;;;;;1717985;28;20678;-72
2023/01/21 02:01:41;;;;;;;0.15;0.15;;;;;;;;;;1717427;28;20292;-72
2023/01/21 02:02:33;;;;;;;0.10;0.10;;;;;;;;;;1718962;28;20239;-72
2023/01/21 02:03:43;;;;;;;0.10;0.10;;;;;;;;;;1717940;28;20445;-72
2023/01/21 02:04:37;;;;;;;0.13;0.13;;;;;;;;;;1718988;28;20205;-71
2023/01/21 02:05:29;;;;;;;0.10;0.10;;;;;;;;;;1715548;28;20282;-72
2023/01/21 02:06:20;;;;;;;0.10;0.10;;;;;;;;;;1719099;28;20212;-72
2023/01/21 02:07:14;;;;;;;0.20;0.20;;;;;;;;;;1717265;28;20209;-72
2023/01/21 02:08:06;;;;;;;0.10;0.10;;;;;;;;;;1719108;28;20205;-72
2023/01/21 02:08:58;;;;;;;0.20;0.20;;;;;;;;;;1717836;28;20251;-72
2023/01/21 02:09:49;;;;;;;0.25;0.25;;;;;;;;;;1719345;28;20274;-72
2023/01/21 02:10:41;;;;;;;0.10;0.10;;;;;;;;;;1712613;28;20237;-72
2023/01/21 02:11:32;;;;;;;0.30;0.30;;;;;;;;;;1718714;28;20213;-72
2023/01/21 02:12:24;;;;;;;0.30;0.30;;;;;;;;;;1717523;28;20201;-72
2023/01/21 02:13:15;;;;;;;0.10;0.10;;;;;;;;;;1718492;28;20581;-72
2023/01/21 02:14:08;;;;;;;0.20;0.20;;;;;;;;;;1718703;28;20288;-72
2023/01/21 02:14:59;;;;;;;0.20;0.20;;;;;;;;;;1718082;28;20205;-72
2023/01/21 02:15:58;;;;;;;0.10;0.10;;;;;;;;;;1713761;28;20272;-72
2023/01/21 02:16:54;;;;;;;0.10;0.10;;;;;;;;;;1714487;28;20314;-72
2023/01/21 02:17:52;;;;;;;0.10;0.10;;;;;;;;;;1717527;28;20201;-72
2023/01/21 02:18:45;;;;;;;0.20;0.20;;;;;;;;;;1718277;28;20279;-72
2023/01/21 02:19:54;;;;;;;0.20;0.20;;;;;;;;;;1718894;28;20213;-72
2023/01/21 02:21:04;;;;;;;0.20;0.20;;;;;;;;;;1713242;28;20299;-72
2023/01/21 02:22:01;;;;;;;0.10;0.10;;;;;;;;;;1714672;28;20206;-71
2023/01/21 02:22:58;;;;;;;0.10;0.10;;;;;;;;;;1719367;28;20217;-71
2023/01/21 02:24:00;;;;;;;0.00;0.00;;;;;;;;;;1716843;28;20224;-71
2023/01/21 02:25:12;;;;;;;0.10;0.10;;;;;;;;;;1712937;28;20194;-71
2023/01/21 02:26:18;;;;;;;0.15;0.15;;;;;;;;;;1714975;28;20325;-71
2023/01/21 02:27:18;;;;;;;0.15;0.15;;;;;;;;;;1717932;28;20193;-71
2023/01/21 02:28:28;;;;;;;0.20;0.20;;;;;;;;;;1716848;28;20190;-72
2023/01/21 02:29:28;;;;;;;0.10;0.10;;;;;;;;;;1719006;28;20271;-72
2023/01/21 02:30:35;;;;;;;0.03;0.03;;;;;;;;;;1713881;28;20655;-72
2023/01/21 02:31:32;;;;;;;0.28;0.28;;;;;;;;;;1714264;28;20833;-72
2023/01/21 02:32:41;;;;;;;0.10;0.10;;;;;;;;;;1718578;28;20263;-72
2023/01/21 02:33:47;;;;;;;0.20;0.20;;;;;;;;;;1711479;28;20218;-72
2023/01/21 02:34:41;;;;;;;0.10;0.10;;;;;;;;;;1711998;28;20206;-72
2023/01/21 02:35:36;;;;;;;0.20;0.20;;;;;;;;;;1710100;28;20311;-72
2023/01/21 02:36:42;;;;;;;0.30;0.30;;;;;;;;;;1712191;28;20208;-72
2023/01/21 02:37:36;;;;;;;0.20;0.20;;;;;;;;;;1712195;28;20706;-72
2023/01/21 02:38:30;;;;;;;0.30;0.30;;;;;;;;;;1711576;28;20211;-72
2023/01/21 02:39:27;;;;;;;0.15;0.15;;;;;;;;;;1712287;28;20217;-72
2023/01/21 02:40:23;;;;;;;0.10;0.10;;;;;;;;;;1710117;28;20229;-73
2023/01/21 02:41:20;;;;;;;0.10;0.10;;;;;;;;;;1712079;28;20295;-72
2023/01/21 02:42:16;;;;;;;0.00;0.00;;;;;;;;;;1711348;28;20240;-72
2023/01/21 02:43:09;;;;;;;0.17;0.17;;;;;;;;;;1712189;28;20210;-72
2023/01/21 02:44:07;;;;;;;0.13;0.13;;;;;;;;;;1711580;28;20201;-72
2023/01/21 02:45:03;;;;;;;0.10;0.10;;;;;;;;;;1711608;28;20201;-72
2023/01/21 02:45:57;;;;;;;0.20;0.20;;;;;;;;;;1710847;28;20616;-72
2023/01/21 02:46:51;;;;;;;0.20;0.20;;;;;;;;;;1707572;28;20534;-71
2023/01/21 02:47:47;;;;;;;0.10;0.10;;;;;;;;;;1712219;28;20627;-71
2023/01/21 02:48:41;;;;;;;0.10;0.10;;;;;;;;;;1711956;28;20300;-72
2023/01/21 02:49:34;;;;;;;0.10;0.10;;;;;;;;;;1712101;28;20268;-72
2023/01/21 02:50:28;;;;;;;0.30;0.30;;;;;;;;;;1710117;28;20246;-72
2023/01/21 02:51:19;;;;;;;0.13;0.13;;;;;;;;;;1712178;28;20271;-72
2023/01/21 02:52:17;;;;;;;0.20;0.20;;;;;;;;;;1711701;28;20632;-72
2023/01/21 02:53:18;;;;;;;0.22;0.22;;;;;;;;;;1712089;28;20194;-72
2023/01/21 02:54:14;;;;;;;0.03;0.03;;;;;;;;;;1712344;28;20232;-72
2023/01/21 02:55:09;;;;;;;0.20;0.20;;;;;;;;;;1712022;28;20263;-72
2023/01/21 02:56:03;;;;;;;0.20;0.20;;;;;;;;;;1710584;28;20226;-72
2023/01/21 02:56:54;;;;;;;0.13;0.13;;;;;;;;;;1712279;28;20252;-72
2023/01/21 02:57:48;;;;;;;0.20;0.20;;;;;;;;;;1711920;28;20651;-72
2023/01/21 02:58:42;;;;;;;0.30;0.30;;;;;;;;;;1711902;28;20592;-72
2023/01/21 02:59:35;;;;;;;0.20;0.20;;;;;;;;;;1711985;28;20216;-72
2023/01/21 03:00:27;;;;;;;0.40;0.40;;;;;;;;;;1710217;28;20213;-72
2023/01/21 03:01:25;;;;;;;0.25;0.25;;;;;;;;;;1712323;28;20296;-72
2023/01/21 03:02:22;;;;;;;0.28;0.28;;;;;;;;;;1711656;28;20349;-72
2023/01/21 03:03:32;;;;;;;0.10;0.10;;;;;;;;;;1712033;28;20210;-72
2023/01/21 03:04:33;;;;;;;0.22;0.22;;;;;;;;;;1712059;28;20210;-73
2023/01/21 03:05:30;;;;;;;0.20;0.20;;;;;;;;;;1710347;28;20619;-73
2023/01/21 03:06:29;;;;;;;0.15;0.15;;;;;;;;;;1712356;28;20299;-72
2023/01/21 03:07:22;;;;;;;0.10;0.10;;;;;;;;;;1712125;28;20217;-72
2023/01/21 03:08:17;;;;;;;0.10;0.10;;;;;;;;;;1711803;28;20276;-72
2023/01/21 03:09:17;;;;;;;0.20;0.20;;;;;;;;;;1712169;28;20221;-72
2023/01/21 03:10:10;;;;;;;0.10;0.10;;;;;;;;;;1711737;28;20722;-73
2023/01/21 03:11:04;;;;;;;0.20;0.20;;;;;;;;;;1711312;28;20226;-72
2023/01/21 03:12:16;;;;;;;0.30;0.30;;;;;;;;;;1712375;28;20603;-72
2023/01/21 03:13:10;;;;;;;0.10;0.10;;;;;;;;;;1691773;29;20537;-72
2023/01/21 03:17:45;;;;;;;0.20;0.20;;;;;;;;;;1711726;28;20264;-72
2023/01/21 03:18:40;;;;;;;0.20;0.20;;;;;;;;;;1711586;28;20210;-72
2023/01/21 03:19:34;;;;;;;0.10;0.10;;;;;;;;;;1712203;28;20252;-72
2023/01/21 03:20:29;;;;;;;0.20;0.20;;;;;;;;;;1709866;28;20220;-72
2023/01/21 03:21:23;;;;;;;0.10;0.10;;;;;;;;;;1708782;28;20222;-72
2023/01/21 03:22:17;;;;;;;0.00;0.00;;;;;;;;;;1711576;28;20241;-72
2023/01/21 03:23:10;;;;;;;0.05;0.05;;;;;;;;;;1712007;28;20327;-72
2023/01/21 03:24:02;;;;;;;0.15;0.15;;;;;;;;;;1711748;28;20299;-72
2023/01/21 03:24:55;;;;;;;0.13;0.13;;;;;;;;;;1711974;28;20209;-72
2023/01/21 03:25:47;;;;;;;0.10;0.10;;;;;;;;;;1710613;28;20230;-72
2023/01/21 03:26:41;;;;;;;0.10;0.10;;;;;;;;;;1711547;28;20640;-72
2023/01/21 03:27:33;;;;;;;0.20;0.20;;;;;;;;;;1711698;28;20643;-72
2023/01/21 03:28:26;;;;;;;0.20;0.20;;;;;;;;;;1711570;28;20222;-72
2023/01/21 03:29:20;;;;;;;0.13;0.13;;;;;;;;;;1711987;28;20241;-72
2023/01/21 03:30:14;;;;;;;0.20;0.20;;;;;;;;;;1711111;28;20469;-72
2023/01/21 03:31:08;;;;;;;0.25;0.25;;;;;;;;;;1711100;28;20295;-72
2023/01/21 03:32:02;;;;;;;0.20;0.20;;;;;;;;;;1711644;28;20206;-72
2023/01/21 03:32:55;;;;;;;0.17;0.17;;;;;;;;;;1711727;28;20296;-72
2023/01/21 03:33:48;;;;;;;0.13;0.13;;;;;;;;;;1711541;28;20202;-72
2023/01/21 03:34:43;;;;;;;0.10;0.10;;;;;;;;;;1712189;28;20210;-72
2023/01/21 03:35:37;;;;;;;0.10;0.10;;;;;;;;;;1709813;28;20762;-72
2023/01/21 03:36:34;;;;;;;0.20;0.20;;;;;;;;;;1713079;28;20206;-72
2023/01/21 03:37:28;;;;;;;0.30;0.30;;;;;;;;;;1712916;28;20217;-72
2023/01/21 03:38:23;;;;;;;0.10;0.10;;;;;;;;;;1712916;28;20579;-72
2023/01/21 03:39:17;;;;;;;0.20;0.20;;;;;;;;;;1713166;28;20275;-72
2023/01/21 03:40:13;;;;;;;0.00;0.00;;;;;;;;;;1712758;28;20531;-72
2023/01/21 03:41:07;;;;;;;0.25;0.25;;;;;;;;;;1711936;28;20237;-72
2023/01/21 03:41:59;;;;;;;0.10;0.10;;;;;;;;;;1712965;28;20202;-72
2023/01/21 03:42:52;;;;;;;0.22;0.22;;;;;;;;;;1713462;28;20206;-72
2023/01/21 03:43:45;;;;;;;0.20;0.20;;;;;;;;;;1712708;28;20707;-71
2023/01/21 03:44:36;;;;;;;0.30;0.30;;;;;;;;;;1713457;28;20242;-71
2023/01/21 03:45:37;;;;;;;0.30;0.30;;;;;;;;;;1711179;28;20206;-72
2023/01/21 03:46:33;;;;;;;0.15;0.15;;;;;;;;;;1713449;28;20221;-72
2023/01/21 03:47:28;;;;;;;0.20;0.20;;;;;;;;;;1712870;28;20212;-72
2023/01/21 03:48:21;;;;;;;0.20;0.20;;;;;;;;;;1712888;28;20272;-72
2023/01/21 03:49:16;;;;;;;0.20;0.20;;;;;;;;;;1713260;28;20681;-72
2023/01/21 03:50:09;;;;;;;0.20;0.20;;;;;;;;;;1712957;28;20591;-72
2023/01/21 03:51:05;;;;;;;0.17;0.17;;;;;;;;;;1711511;28;20229;-72
2023/01/21 03:51:58;;;;;;;0.30;0.30;;;;;;;;;;1712711;28;20214;-72
2023/01/21 03:52:50;;;;;;;0.10;0.10;;;;;;;;;;1713593;28;20293;-72
2023/01/21 03:53:41;;;;;;;0.20;0.20;;;;;;;;;;1712635;28;20210;-72
2023/01/21 03:54:34;;;;;;;0.00;0.00;;;;;;;;;;1713253;28;20212;-72
2023/01/21 03:55:25;;;;;;;0.20;0.20;;;;;;;;;;1711327;28;20722;-72
2023/01/21 03:56:16;;;;;;;0.10;0.10;;;;;;;;;;1712999;28;20539;-72
2023/01/21 03:57:07;;;;;;;0.30;0.30;;;;;;;;;;1712529;28;20209;-72
2023/01/21 03:57:59;;;;;;;0.15;0.15;;;;;;;;;;1712946;28;20201;-72
2023/01/21 03:58:50;;;;;;;0.10;0.10;;;;;;;;;;1713128;28;20267;-71
2023/01/21 03:59:43;;;;;;;0.20;0.20;;;;;;;;;;1713125;28;20241;-71
2023/01/21 04:00:34;;;;;;;0.30;0.30;;;;;;;;;;1711093;28;20560;-71
2023/01/21 04:01:26;;;;;;;0.17;0.17;;;;;;;;;;1713280;28;20276;-72
2023/01/21 04:02:19;;;;;;;0.10;0.10;;;;;;;;;;1712493;28;20357;-72
2023/01/21 04:03:11;;;;;;;0.22;0.22;;;;;;;;;;1713056;28;20225;-72
2023/01/21 04:04:02;;;;;;;0.20;0.20;;;;;;;;;;1712516;28;20272;-72
2023/01/21 04:04:54;;;;;;;0.20;0.20;;;;;;;;;;1713189;28;20209;-72
2023/01/21 04:05:45;;;;;;;0.10;0.10;;;;;;;;;;1711679;28;20238;-71
2023/01/21 04:06:38;;;;;;;0.20;0.20;;;;;;;;;;1712682;28;20209;-72
2023/01/21 04:07:29;;;;;;;0.20;0.20;;;;;;;;;;1713109;28;20217;-71
2023/01/21 04:08:21;;;;;;;0.10;0.10;;;;;;;;;;1712328;28;20209;-71
2023/01/21 04:09:12;;;;;;;0.20;0.20;;;;;;;;;;1712982;28;20271;-71
2023/01/21 04:10:04;;;;;;;0.10;0.10;;;;;;;;;;1713153;28;20260;-71
2023/01/21 04:10:55;;;;;;;0.17;0.17;;;;;;;;;;1711801;28;20308;-72
2023/01/21 04:11:47;;;;;;;0.10;0.10;;;;;;;;;;1712646;28;20221;-72
2023/01/21 04:12:39;;;;;;;0.13;0.13;;;;;;;;;;1712749;28;20648;-72
2023/01/21 04:13:31;;;;;;;0.17;0.17;;;;;;;;;;1712679;28;20212;-71
2023/01/21 04:14:22;;;;;;;0.10;0.10;;;;;;;;;;1713014;28;20267;-71
2023/01/21 04:15:14;;;;;;;0.15;0.15;;;;;;;;;;1711905;28;20275;-72
2023/01/21 04:16:05;;;;;;;0.20;0.20;;;;;;;;;;1712445;28;20675;-72
2023/01/21 04:16:57;;;;;;;0.15;0.15;;;;;;;;;;1712633;28;20544;-72
2023/01/21 04:17:48;;;;;;;0.20;0.20;;;;;;;;;;1713138;28;20271;-71
2023/01/21 04:18:40;;;;;;;0.17;0.17;;;;;;;;;;1712472;28;20210;-71
2023/01/21 04:19:31;;;;;;;0.10;0.10;;;;;;;;;;1713137;28;20210;-71
2023/01/21 04:20:23;;;;;;;0.43;0.43;;;;;;;;;;1710984;28;20209;-72
2023/01/21 04:21:14;;;;;;;0.25;0.25;;;;;;;;;;1712941;28;20529;-72
2023/01/21 04:22:08;;;;;;;0.15;0.15;;;;;;;;;;1712574;28;20292;-72
2023/01/21 04:22:59;;;;;;;0.10;0.10;;;;;;;;;;1713196;28;20240;-72
2023/01/21 04:23:51;;;;;;;0.25;0.25;;;;;;;;;;1711518;28;20244;-72
2023/01/21 04:24:42;;;;;;;0.25;0.25;;;;;;;;;;1713154;28;20636;-72
2023/01/21 04:25:34;;;;;;;0.20;0.20;;;;;;;;;;1711028;28;20240;-72
2023/01/21 04:26:25;;;;;;;0.10;0.10;;;;;;;;;;1713138;28;20218;-72
2023/01/21 04:27:17;;;;;;;0.20;0.20;;;;;;;;;;1712039;28;20317;-72
2023/01/21 04:28:08;;;;;;;0.10;0.10;;;;;;;;;;1713104;28;20275;-72
2023/01/21 04:28:59;;;;;;;0.10;0.10;;;;;;;;;;1712689;28;20228;-72
2023/01/21 04:29:51;;;;;;;0.28;0.28;;;;;;;;;;1713652;28;20205;-72
2023/01/21 04:30:42;;;;;;;0.20;0.20;;;;;;;;;;1711414;28;20249;-71
2023/01/21 04:31:33;;;;;;;0.10;0.10;;;;;;;;;;1712433;28;20217;-71
2023/01/21 04:32:25;;;;;;;0.20;0.20;;;;;;;;;;1712860;28;20209;-71
2023/01/21 04:33:16;;;;;;;0.20;0.20;;;;;;;;;;1712134;28;20237;-71
2023/01/21 04:34:08;;;;;;;0.10;0.10;;;;;;;;;;1712727;28;20208;-71
2023/01/21 04:34:59;;;;;;;0.10;0.10;;;;;;;;;;1712889;28;20710;-71
2023/01/21 04:35:51;;;;;;;0.17;0.17;;;;;;;;;;1711209;28;20619;-72
2023/01/21 04:36:42;;;;;;;0.20;0.20;;;;;;;;;;1712495;28;20264;-72
2023/01/21 04:37:35;;;;;;;0.20;0.20;;;;;;;;;;1712680;28;20275;-72
2023/01/21 04:38:27;;;;;;;0.10;0.10;;;;;;;;;;1712430;28;20205;-72
2023/01/21 04:39:18;;;;;;;0.10;0.10;;;;;;;;;;1712905;28;20598;-72
2023/01/21 04:40:11;;;;;;;0.10;0.10;;;;;;;;;;1712402;28;20579;-72
2023/01/21 04:41:02;;;;;;;0.20;0.20;;;;;;;;;;1711352;28;20794;-72
2023/01/21 04:41:54;;;;;;;0.30;0.30;;;;;;;;;;1712620;28;20533;-72
2023/01/21 04:42:45;;;;;;;0.20;0.20;;;;;;;;;;1712889;28;20249;-72
2023/01/21 04:43:37;;;;;;;0.10;0.10;;;;;;;;;;1712261;28;20317;-72
2023/01/21 04:44:28;;;;;;;0.20;0.20;;;;;;;;;;1713121;28;20263;-72
2023/01/21 04:45:20;;;;;;;0.30;0.30;;;;;;;;;;1711106;28;20210;-72
2023/01/21 04:46:11;;;;;;;0.20;0.20;;;;;;;;;;1712498;28;20295;-72
2023/01/21 04:47:03;;;;;;;0.17;0.17;;;;;;;;;;1712067;28;20652;-72
2023/01/21 04:47:54;;;;;;;0.20;0.20;;;;;;;;;;1713142;28;20229;-72
2023/01/21 04:48:45;;;;;;;0.10;0.10;;;;;;;;;;1712390;28;20209;-72
2023/01/21 04:49:37;;;;;;;0.20;0.20;;;;;;;;;;1712952;28;20224;-72
2023/01/21 04:50:28;;;;;;;0.10;0.10;;;;;;;;;;1710874;28;20252;-71
2023/01/21 04:51:20;;;;;;;0.10;0.10;;;;;;;;;;1712943;28;20625;-71
2023/01/21 04:52:11;;;;;;;0.20;0.20;;;;;;;;;;1712237;28;20310;-71
2023/01/21 04:53:04;;;;;;;0.20;0.20;;;;;;;;;;1713093;28;20284;-71
2023/01/21 04:53:55;;;;;;;0.22;0.22;;;;;;;;;;1712568;28;20660;-71
2023/01/21 04:54:47;;;;;;;0.05;0.05;;;;;;;;;;1712835;28;20517;-71
2023/01/21 04:55:38;;;;;;;0.10;0.10;;;;;;;;;;1710824;28;20237;-71
2023/01/21 04:56:30;;;;;;;0.10;0.10;;;;;;;;;;1712660;28;20264;-71
2023/01/21 04:57:21;;;;;;;0.10;0.10;;;;;;;;;;1712206;28;20209;-72
2023/01/21 04:58:12;;;;;;;0.17;0.17;;;;;;;;;;1712454;28;20205;-72
2023/01/21 04:59:05;;;;;;;0.10;0.10;;;;;;;;;;1712799;28;20536;-71
2023/01/21 04:59:56;;;;;;;0.20;0.20;;;;;;;;;;1712766;28;20210;-71
2023/01/21 05:00:48;;;;;;;0.30;0.30;;;;;;;;;;1711111;28;20241;-72
2023/01/21 05:01:39;;;;;;;0.20;0.20;;;;;;;;;;1712378;28;20214;-72
2023/01/21 05:02:31;;;;;;;0.20;0.20;;;;;;;;;;1712523;28;20216;-72
2023/01/21 05:03:22;;;;;;;0.20;0.20;;;;;;;;;;1712320;28;20213;-72
2023/01/21 05:04:14;;;;;;;0.17;0.17;;;;;;;;;;1712555;28;20237;-72
2023/01/21 05:05:05;;;;;;;0.10;0.10;;;;;;;;;;1712582;28;20644;-72
2023/01/21 05:05:57;;;;;;;0.10;0.10;;;;;;;;;;1711335;28;20710;-71
2023/01/21 05:06:48;;;;;;;0.20;0.20;;;;;;;;;;1712146;28;20210;-71
2023/01/21 05:07:40;;;;;;;0.20;0.20;;;;;;;;;;1712792;28;20218;-71
2023/01/21 05:08:33;;;;;;;0.20;0.20;;;;;;;;;;1712277;28;20803;-71
2023/01/21 05:09:25;;;;;;;0.10;0.10;;;;;;;;;;1712752;28;20214;-72
2023/01/21 05:10:16;;;;;;;0.30;0.30;;;;;;;;;;1711523;28;20226;-71
2023/01/21 05:11:09;;;;;;;0.15;0.15;;;;;;;;;;1712301;28;20233;-71
2023/01/21 05:12:00;;;;;;;0.10;0.10;;;;;;;;;;1712463;28;20292;-71
2023/01/21 05:12:52;;;;;;;0.10;0.10;;;;;;;;;;1712459;28;20237;-71
2023/01/21 05:13:43;;;;;;;0.10;0.10;;;;;;;;;;1712273;28;20243;-71
2023/01/21 05:14:35;;;;;;;0.30;0.30;;;;;;;;;;1712800;28;20205;-71
2023/01/21 05:15:26;;;;;;;0.10;0.10;;;;;;;;;;1710873;28;20636;-71
2023/01/21 05:16:19;;;;;;;0.10;0.10;;;;;;;;;;1712924;28;20564;-71
2023/01/21 05:17:10;;;;;;;0.10;0.10;;;;;;;;;;1712010;28;20222;-71
2023/01/21 05:18:02;;;;;;;0.20;0.20;;;;;;;;;;1713152;28;20212;-71
2023/01/21 05:18:53;;;;;;;0.20;0.20;;;;;;;;;;1711400;28;20267;-71
2023/01/21 05:19:44;;;;;;;0.20;0.20;;;;;;;;;;1712655;28;20202;-71
2023/01/21 05:20:36;;;;;;;0.20;0.20;;;;;;;;;;1711009;28;20229;-72
2023/01/21 05:21:27;;;;;;;0.10;0.10;;;;;;;;;;1712515;28;20622;-71
2023/01/21 05:22:19;;;;;;;0.20;0.20;;;;;;;;;;1712127;28;20301;-72
2023/01/21 05:23:10;;;;;;;0.10;0.10;;;;;;;;;;1712615;28;20209;-72